sensor_id;sensor_type;location;lat;lon;timestamp;temperature;humidity
3268;DHT22;1646;52.450;13.326;2023-02-24T00:02:45;8.00;99.90
3268;DHT22;1646;52.450;13.326;2023-02-24T00:07:46;7.90;99.90
3268;DHT22;1646;52.450;13.326;2023-02-24T00:12:44;7.90;99.90
3268;DHT22;1646;52.450;13.326;2023-02-24T00:17:43;7.90;99.90
3268;DHT22;1646;52.450;13.326;2023-02-24T00:22:42;8.00;99.90
3268;DHT22;1646;52.450;13.326;2023-02-24T00:27:42;8.00;99.90
3268;DHT22;1646;52.450;13.326;2023-02-24T00:32:40;7.90;99.90
3268;DHT22;1646;52.450;13.326;2023-02-24T00:37:38;8.00;99.90
3268;DHT22;1646;52.450;13.326;2023-02-24T00:42:37;8.00;99.90
3268;DHT22;1646;52.450;13.326;2023-02-24T00:47:39;8.00;99.90
3268;DHT22;1646;52.450;13.326;2023-02-24T00:52:38;8.00;99.90
3268;DHT22;1646;52.450;13.326;2023-02-24T00:57:36;8.10;99.90
3268;DHT22;1646;52.450;13.326;2023-02-24T01:02:36;8.20;99.90
3268;DHT22;1646;52.450;13.326;2023-02-24T01:07:36;7.90;99.90
3268;DHT22;1646;52.450;13.326;2023-02-24T01:12:34;7.60;99.90
3268;DHT22;1646;52.450;13.326;2023-02-24T01:17:45;7.30;99.90
3268;DHT22;1646;52.450;13.326;2023-02-24T01:22:48;7.10;99.90
3268;DHT22;1646;52.450;13.326;2023-02-24T01:27:47;6.90;99.90
3268;DHT22;1646;52.450;13.326;2023-02-24T01:32:45;6.80;99.90
3268;DHT22;1646;52.450;13.326;2023-02-24T01:37:45;6.70;99.90
3268;DHT22;1646;52.450;13.326;2023-02-24T01:42:44;6.70;99.90
3268;DHT22;1646;52.450;13.326;2023-02-24T01:47:45;6.60;99.90
3268;DHT22;1646;52.450;13.326;2023-02-24T01:52:47;6.60;99.90
3268;DHT22;1646;52.450;13.326;2023-02-24T01:57:47;6.50;99.90
3268;DHT22;1646;52.450;13.326;2023-02-24T02:02:48;6.50;99.90
3268;DHT22;1646;52.450;13.326;2023-02-24T02:07:50;6.60;99.90
3268;DHT22;1646;52.450;13.326;2023-02-24T02:12:49;6.60;99.90
3268;DHT22;1646;52.450;13.326;2023-02-24T02:17:56;6.60;99.90
3268;DHT22;1646;52.450;13.326;2023-02-24T02:23:19;6.50;99.90
3268;DHT22;1646;52.450;13.326;2023-02-24T02:28:48;6.30;99.90
3268;DHT22;1646;52.450;13.326;2023-02-24T02:34:13;6.00;99.90
3268;DHT22;1646;52.450;13.326;2023-02-24T02:39:16;5.80;99.90
3268;DHT22;1646;52.450;13.326;2023-02-24T02:44:21;5.60;99.90
3268;DHT22;1646;52.450;13.326;2023-02-24T02:49:27;5.70;99.90
3268;DHT22;1646;52.450;13.326;2023-02-24T02:54:37;5.60;99.90
3268;DHT22;1646;52.450;13.326;2023-02-24T02:59:41;5.60;99.90
3268;DHT22;1646;52.450;13.326;2023-02-24T03:04:50;5.40;99.90
3268;DHT22;1646;52.450;13.326;2023-02-24T03:09:52;5.40;99.90
3268;DHT22;1646;52.450;13.326;2023-02-24T03:14:56;5.40;99.90
3268;DHT22;1646;52.450;13.326;2023-02-24T03:20:02;5.30;99.90
3268;DHT22;1646;52.450;13.326;2023-02-24T03:25:09;5.30;99.90
3268;DHT22;1646;52.450;13.326;2023-02-24T03:30:14;5.20;99.90
3268;DHT22;1646;52.450;13.326;2023-02-24T03:35:18;5.20;99.90
3268;DHT22;1646;52.450;13.326;2023-02-24T03:40:18;5.20;99.90
3268;DHT22;1646;52.450;13.326;2023-02-24T03:45:19;5.10;99.90
3268;DHT22;1646;52.450;13.326;2023-02-24T03:50:21;4.90;99.90
3268;DHT22;1646;52.450;13.326;2023-02-24T03:55:30;4.90;99.90
3268;DHT22;1646;52.450;13.326;2023-02-24T04:00:36;5.00;99.90
3268;DHT22;1646;52.450;13.326;2023-02-24T04:05:41;5.00;99.90
3268;DHT22;1646;52.450;13.326;2023-02-24T04:10:48;4.90;99.90
3268;DHT22;1646;52.450;13.326;2023-02-24T04:15:58;4.80;99.90
3268;DHT22;1646;52.450;13.326;2023-02-24T04:21:02;4.80;99.90
3268;DHT22;1646;52.450;13.326;2023-02-24T04:26:04;5.00;99.90
3268;DHT22;1646;52.450;13.326;2023-02-24T04:31:06;5.10;99.90
3268;DHT22;1646;52.450;13.326;2023-02-24T04:36:10;5.00;99.90
3268;DHT22;1646;52.450;13.326;2023-02-24T04:41:10;4.70;99.90
3268;DHT22;1646;52.450;13.326;2023-02-24T04:46:10;4.70;99.90
3268;DHT22;1646;52.450;13.326;2023-02-24T04:51:10;4.70;99.90
3268;DHT22;1646;52.450;13.326;2023-02-24T04:56:09;4.80;99.90
3268;DHT22;1646;52.450;13.326;2023-02-24T05:01:09;4.80;99.90
3268;DHT22;1646;52.450;13.326;2023-02-24T05:06:14;4.80;99.90
3268;DHT22;1646;52.450;13.326;2023-02-24T05:11:14;4.80;99.90
3268;DHT22;1646;52.450;13.326;2023-02-24T05:16:16;4.80;99.90
3268;DHT22;1646;52.450;13.326;2023-02-24T05:21:17;4.70;99.90
3268;DHT22;1646;52.450;13.326;2023-02-24T05:26:35;4.70;99.90
3268;DHT22;1646;52.450;13.326;2023-02-24T05:31:34;4.70;99.90
3268;DHT22;1646;52.450;13.326;2023-02-24T05:36:37;4.90;99.90
3268;DHT22;1646;52.450;13.326;2023-02-24T05:41:38;5.00;99.90
3268;DHT22;1646;52.450;13.326;2023-02-24T05:46:39;4.90;99.90
3268;DHT22;1646;52.450;13.326;2023-02-24T05:51:39;4.90;99.90
3268;DHT22;1646;52.450;13.326;2023-02-24T05:56:40;4.90;99.90
3268;DHT22;1646;52.450;13.326;2023-02-24T06:01:40;4.70;99.90
3268;DHT22;1646;52.450;13.326;2023-02-24T06:06:42;4.80;99.90
3268;DHT22;1646;52.450;13.326;2023-02-24T06:11:41;4.70;99.90
3268;DHT22;1646;52.450;13.326;2023-02-24T06:16:41;4.70;99.90
3268;DHT22;1646;52.450;13.326;2023-02-24T06:21:42;4.80;99.90
3268;DHT22;1646;52.450;13.326;2023-02-24T06:26:42;4.80;99.90
3268;DHT22;1646;52.450;13.326;2023-02-24T06:31:40;4.80;99.90
3268;DHT22;1646;52.450;13.326;2023-02-24T06:36:39;4.70;99.90
3268;DHT22;1646;52.450;13.326;2023-02-24T06:41:40;4.60;99.90
3268;DHT22;1646;52.450;13.326;2023-02-24T06:46:38;4.60;99.90
3268;DHT22;1646;52.450;13.326;2023-02-24T06:51:37;4.70;99.90
3268;DHT22;1646;52.450;13.326;2023-02-24T06:56:36;4.80;99.90
3268;DHT22;1646;52.450;13.326;2023-02-24T07:01:37;4.80;99.90
3268;DHT22;1646;52.450;13.326;2023-02-24T07:06:42;4.80;99.90
3268;DHT22;1646;52.450;13.326;2023-02-24T07:11:43;4.90;99.90
3268;DHT22;1646;52.450;13.326;2023-02-24T07:16:45;5.00;99.90
3268;DHT22;1646;52.450;13.326;2023-02-24T07:21:49;5.00;99.90
3268;DHT22;1646;52.450;13.326;2023-02-24T07:26:53;5.00;99.90
3268;DHT22;1646;52.450;13.326;2023-02-24T07:31:53;4.80;99.90
3268;DHT22;1646;52.450;13.326;2023-02-24T07:36:53;4.70;99.90
3268;DHT22;1646;52.450;13.326;2023-02-24T07:41:52;4.70;99.90
3268;DHT22;1646;52.450;13.326;2023-02-24T07:46:53;4.70;99.90
3268;DHT22;1646;52.450;13.326;2023-02-24T07:51:52;4.70;99.90
3268;DHT22;1646;52.450;13.326;2023-02-24T07:56:54;4.70;99.90
3268;DHT22;1646;52.450;13.326;2023-02-24T08:01:57;4.70;99.90
3268;DHT22;1646;52.450;13.326;2023-02-24T08:06:56;4.60;99.90
3268;DHT22;1646;52.450;13.326;2023-02-24T08:11:59;4.90;99.90
3268;DHT22;1646;52.450;13.326;2023-02-24T08:16:58;5.20;99.90
3268;DHT22;1646;52.450;13.326;2023-02-24T08:21:57;5.40;99.90
3268;DHT22;1646;52.450;13.326;2023-02-24T08:27:15;5.20;99.90
3268;DHT22;1646;52.450;13.326;2023-02-24T08:32:17;5.00;99.90
3268;DHT22;1646;52.450;13.326;2023-02-24T08:37:16;5.10;99.90
3268;DHT22;1646;52.450;13.326;2023-02-24T08:42:15;5.00;99.90
3268;DHT22;1646;52.450;13.326;2023-02-24T08:47:13;5.10;99.90
3268;DHT22;1646;52.450;13.326;2023-02-24T08:52:18;5.20;99.90
3268;DHT22;1646;52.450;13.326;2023-02-24T08:57:16;5.50;99.90
3268;DHT22;1646;52.450;13.326;2023-02-24T09:02:18;5.50;99.90
3268;DHT22;1646;52.450;13.326;2023-02-24T09:07:26;5.60;99.90
3268;DHT22;1646;52.450;13.326;2023-02-24T09:12:26;5.60;99.90
3268;DHT22;1646;52.450;13.326;2023-02-24T09:17:27;5.80;99.90
3268;DHT22;1646;52.450;13.326;2023-02-24T09:22:38;5.80;99.90
3268;DHT22;1646;52.450;13.326;2023-02-24T09:27:58;5.70;99.90
3268;DHT22;1646;52.450;13.326;2023-02-24T09:33:10;5.50;99.90
3268;DHT22;1646;52.450;13.326;2023-02-24T09:38:17;5.60;99.90
3268;DHT22;1646;52.450;13.326;2023-02-24T09:43:19;5.50;99.90
3268;DHT22;1646;52.450;13.326;2023-02-24T09:48:23;5.50;99.90
3268;DHT22;1646;52.450;13.326;2023-02-24T09:53:27;5.30;99.90
3268;DHT22;1646;52.450;13.326;2023-02-24T09:58:42;5.50;99.90
3268;DHT22;1646;52.450;13.326;2023-02-24T10:03:45;5.50;99.90
3268;DHT22;1646;52.450;13.326;2023-02-24T10:08:51;5.50;99.90
3268;DHT22;1646;52.450;13.326;2023-02-24T10:13:53;5.70;99.90
3268;DHT22;1646;52.450;13.326;2023-02-24T10:19:04;5.70;99.90
3268;DHT22;1646;52.450;13.326;2023-02-24T10:24:17;5.80;99.90
3268;DHT22;1646;52.450;13.326;2023-02-24T10:29:25;6.00;99.90
3268;DHT22;1646;52.450;13.326;2023-02-24T10:34:26;6.10;99.90
3268;DHT22;1646;52.450;13.326;2023-02-24T10:39:30;6.40;99.90
3268;DHT22;1646;52.450;13.326;2023-02-24T10:44:29;6.20;99.90
3268;DHT22;1646;52.450;13.326;2023-02-24T10:49:39;6.10;99.90
3268;DHT22;1646;52.450;13.326;2023-02-24T10:54:40;5.90;99.90
3268;DHT22;1646;52.450;13.326;2023-02-24T11:00:05;5.90;99.90
3268;DHT22;1646;52.450;13.326;2023-02-24T11:05:47;5.80;99.90
3268;DHT22;1646;52.450;13.326;2023-02-24T11:11:14;5.60;99.90
3268;DHT22;1646;52.450;13.326;2023-02-24T11:16:22;5.30;99.90
3268;DHT22;1646;52.450;13.326;2023-02-24T11:21:38;5.10;99.90
3268;DHT22;1646;52.450;13.326;2023-02-24T11:26:40;5.10;99.90
3268;DHT22;1646;52.450;13.326;2023-02-24T11:31:48;4.80;99.90
3268;DHT22;1646;52.450;13.326;2023-02-24T11:36:56;4.90;99.90
3268;DHT22;1646;52.450;13.326;2023-02-24T11:41:59;4.80;99.90
3268;DHT22;1646;52.450;13.326;2023-02-24T11:47:02;4.60;99.90
3268;DHT22;1646;52.450;13.326;2023-02-24T11:52:08;4.50;99.90
3268;DHT22;1646;52.450;13.326;2023-02-24T11:57:12;4.40;99.90
3268;DHT22;1646;52.450;13.326;2023-02-24T12:02:15;4.30;99.90
3268;DHT22;1646;52.450;13.326;2023-02-24T12:07:21;4.10;99.90
3268;DHT22;1646;52.450;13.326;2023-02-24T12:12:31;4.00;99.90
3268;DHT22;1646;52.450;13.326;2023-02-24T12:17:36;3.80;99.90
3268;DHT22;1646;52.450;13.326;2023-02-24T12:22:40;4.00;99.90
3268;DHT22;1646;52.450;13.326;2023-02-24T12:27:54;4.10;99.90
3268;DHT22;1646;52.450;13.326;2023-02-24T12:32:59;3.90;99.90
3268;DHT22;1646;52.450;13.326;2023-02-24T12:38:16;3.90;99.90
3268;DHT22;1646;52.450;13.326;2023-02-24T12:43:24;4.00;99.90
3268;DHT22;1646;52.450;13.326;2023-02-24T12:48:48;4.10;99.90
3268;DHT22;1646;52.450;13.326;2023-02-24T12:53:56;4.00;99.90
3268;DHT22;1646;52.450;13.326;2023-02-24T12:59:00;3.90;99.90
3268;DHT22;1646;52.450;13.326;2023-02-24T13:04:21;3.70;99.90
3268;DHT22;1646;52.450;13.326;2023-02-24T13:09:29;3.90;99.90
3268;DHT22;1646;52.450;13.326;2023-02-24T13:14:32;3.90;99.90
3268;DHT22;1646;52.450;13.326;2023-02-24T13:19:31;4.00;99.90
3268;DHT22;1646;52.450;13.326;2023-02-24T13:24:30;4.00;99.90
3268;DHT22;1646;52.450;13.326;2023-02-24T13:29:44;3.80;99.90
3268;DHT22;1646;52.450;13.326;2023-02-24T13:34:43;3.80;99.90
3268;DHT22;1646;52.450;13.326;2023-02-24T13:39:42;3.80;99.90
3268;DHT22;1646;52.450;13.326;2023-02-24T13:44:47;3.70;99.90
3268;DHT22;1646;52.450;13.326;2023-02-24T13:49:55;3.70;99.90
3268;DHT22;1646;52.450;13.326;2023-02-24T13:55:17;3.70;99.90
3268;DHT22;1646;52.450;13.326;2023-02-24T14:00:27;3.80;99.90
3268;DHT22;1646;52.450;13.326;2023-02-24T14:05:31;3.80;99.90
3268;DHT22;1646;52.450;13.326;2023-02-24T14:10:32;3.70;99.90
3268;DHT22;1646;52.450;13.326;2023-02-24T14:15:34;3.70;99.90
3268;DHT22;1646;52.450;13.326;2023-02-24T14:20:34;3.70;99.90
3268;DHT22;1646;52.450;13.326;2023-02-24T14:25:35;3.70;99.90
3268;DHT22;1646;52.450;13.326;2023-02-24T14:30:38;3.70;99.90
3268;DHT22;1646;52.450;13.326;2023-02-24T14:35:40;3.80;99.90
3268;DHT22;1646;52.450;13.326;2023-02-24T14:40:46;3.90;99.90
3268;DHT22;1646;52.450;13.326;2023-02-24T14:45:48;3.90;99.90
3268;DHT22;1646;52.450;13.326;2023-02-24T14:50:47;3.90;99.90
3268;DHT22;1646;52.450;13.326;2023-02-24T14:55:48;3.90;99.90
3268;DHT22;1646;52.450;13.326;2023-02-24T15:00:52;3.70;99.90
3268;DHT22;1646;52.450;13.326;2023-02-24T15:05:54;3.60;99.90
3268;DHT22;1646;52.450;13.326;2023-02-24T15:10:54;3.80;99.90
3268;DHT22;1646;52.450;13.326;2023-02-24T15:15:54;3.80;99.90
3268;DHT22;1646;52.450;13.326;2023-02-24T15:20:59;3.70;99.90
3268;DHT22;1646;52.450;13.326;2023-02-24T15:25:58;3.70;99.90
3268;DHT22;1646;52.450;13.326;2023-02-24T15:31:06;3.70;99.90
3268;DHT22;1646;52.450;13.326;2023-02-24T15:36:14;3.70;99.90
3268;DHT22;1646;52.450;13.326;2023-02-24T15:41:15;3.60;99.90
3268;DHT22;1646;52.450;13.326;2023-02-24T15:46:22;3.60;99.90
3268;DHT22;1646;52.450;13.326;2023-02-24T15:51:30;3.60;99.90
3268;DHT22;1646;52.450;13.326;2023-02-24T15:56:31;3.70;99.90
3268;DHT22;1646;52.450;13.326;2023-02-24T16:01:32;3.60;99.90
3268;DHT22;1646;52.450;13.326;2023-02-24T16:06:31;3.60;99.90
3268;DHT22;1646;52.450;13.326;2023-02-24T16:11:32;3.50;99.90
3268;DHT22;1646;52.450;13.326;2023-02-24T16:16:35;3.60;99.90
3268;DHT22;1646;52.450;13.326;2023-02-24T16:21:33;3.60;99.90
3268;DHT22;1646;52.450;13.326;2023-02-24T16:26:34;3.60;99.90
3268;DHT22;1646;52.450;13.326;2023-02-24T16:31:34;3.60;99.90
3268;DHT22;1646;52.450;13.326;2023-02-24T16:36:33;3.60;99.90
3268;DHT22;1646;52.450;13.326;2023-02-24T16:41:32;3.60;99.90
3268;DHT22;1646;52.450;13.326;2023-02-24T16:46:35;3.70;99.90
3268;DHT22;1646;52.450;13.326;2023-02-24T16:51:35;3.80;99.90
3268;DHT22;1646;52.450;13.326;2023-02-24T16:56:35;3.70;99.90
3268;DHT22;1646;52.450;13.326;2023-02-24T17:01:35;3.70;99.90
3268;DHT22;1646;52.450;13.326;2023-02-24T17:06:34;3.80;99.90
3268;DHT22;1646;52.450;13.326;2023-02-24T17:11:32;3.90;99.90
3268;DHT22;1646;52.450;13.326;2023-02-24T17:16:30;3.90;99.90
3268;DHT22;1646;52.450;13.326;2023-02-24T17:21:30;3.90;99.90
3268;DHT22;1646;52.450;13.326;2023-02-24T17:26:28;3.80;99.90
3268;DHT22;1646;52.450;13.326;2023-02-24T17:31:27;3.80;99.90
3268;DHT22;1646;52.450;13.326;2023-02-24T17:36:27;3.90;99.90
3268;DHT22;1646;52.450;13.326;2023-02-24T17:41:27;3.90;99.90
3268;DHT22;1646;52.450;13.326;2023-02-24T17:46:25;3.90;99.90
3268;DHT22;1646;52.450;13.326;2023-02-24T17:51:24;4.00;99.90
3268;DHT22;1646;52.450;13.326;2023-02-24T17:56:23;3.90;99.90
3268;DHT22;1646;52.450;13.326;2023-02-24T18:01:23;4.00;99.90
3268;DHT22;1646;52.450;13.326;2023-02-24T18:06:22;4.00;99.90
3268;DHT22;1646;52.450;13.326;2023-02-24T18:11:21;3.90;99.90
3268;DHT22;1646;52.450;13.326;2023-02-24T18:16:19;3.90;99.90
3268;DHT22;1646;52.450;13.326;2023-02-24T18:21:19;4.00;99.90
3268;DHT22;1646;52.450;13.326;2023-02-24T18:26:18;4.10;99.90
3268;DHT22;1646;52.450;13.326;2023-02-24T18:31:22;4.20;99.90
3268;DHT22;1646;52.450;13.326;2023-02-24T18:36:22;4.30;99.90
3268;DHT22;1646;52.450;13.326;2023-02-24T18:41:21;4.30;99.90
3268;DHT22;1646;52.450;13.326;2023-02-24T18:46:21;4.40;99.90
3268;DHT22;1646;52.450;13.326;2023-02-24T18:51:23;4.40;99.90
3268;DHT22;1646;52.450;13.326;2023-02-24T18:56:24;4.40;99.90
3268;DHT22;1646;52.450;13.326;2023-02-24T19:01:24;4.50;99.90
3268;DHT22;1646;52.450;13.326;2023-02-24T19:06:26;4.50;99.90
3268;DHT22;1646;52.450;13.326;2023-02-24T19:11:25;4.60;99.90
3268;DHT22;1646;52.450;13.326;2023-02-24T19:16:24;4.60;99.90
3268;DHT22;1646;52.450;13.326;2023-02-24T19:21:23;4.60;99.90
3268;DHT22;1646;52.450;13.326;2023-02-24T19:26:24;4.50;99.90
3268;DHT22;1646;52.450;13.326;2023-02-24T19:31:26;4.50;99.90
3268;DHT22;1646;52.450;13.326;2023-02-24T19:36:25;4.50;99.90
3268;DHT22;1646;52.450;13.326;2023-02-24T19:41:25;4.60;99.90
3268;DHT22;1646;52.450;13.326;2023-02-24T19:46:23;4.70;99.90
3268;DHT22;1646;52.450;13.326;2023-02-24T19:51:23;4.70;99.90
3268;DHT22;1646;52.450;13.326;2023-02-24T19:56:22;4.70;99.90
3268;DHT22;1646;52.450;13.326;2023-02-24T20:01:23;4.70;99.90
3268;DHT22;1646;52.450;13.326;2023-02-24T20:06:23;4.60;99.90
3268;DHT22;1646;52.450;13.326;2023-02-24T20:11:23;4.60;99.90
3268;DHT22;1646;52.450;13.326;2023-02-24T20:16:23;4.70;99.90
3268;DHT22;1646;52.450;13.326;2023-02-24T20:21:23;4.80;99.90
3268;DHT22;1646;52.450;13.326;2023-02-24T20:26:21;4.60;99.90
3268;DHT22;1646;52.450;13.326;2023-02-24T20:31:20;4.50;99.90
3268;DHT22;1646;52.450;13.326;2023-02-24T20:36:22;4.60;99.90
3268;DHT22;1646;52.450;13.326;2023-02-24T20:41:21;4.60;99.90
3268;DHT22;1646;52.450;13.326;2023-02-24T20:46:23;4.70;99.90
3268;DHT22;1646;52.450;13.326;2023-02-24T20:51:24;4.70;99.90
3268;DHT22;1646;52.450;13.326;2023-02-24T20:56:24;4.70;99.90
3268;DHT22;1646;52.450;13.326;2023-02-24T21:01:23;4.70;99.90
3268;DHT22;1646;52.450;13.326;2023-02-24T21:06:23;4.60;99.90
3268;DHT22;1646;52.450;13.326;2023-02-24T21:11:23;4.60;99.90
3268;DHT22;1646;52.450;13.326;2023-02-24T21:16:21;4.70;99.90
3268;DHT22;1646;52.450;13.326;2023-02-24T21:21:20;4.60;99.90
3268;DHT22;1646;52.450;13.326;2023-02-24T21:26:20;4.60;99.90
3268;DHT22;1646;52.450;13.326;2023-02-24T21:31:20;4.70;99.90
3268;DHT22;1646;52.450;13.326;2023-02-24T21:36:20;4.80;99.90
3268;DHT22;1646;52.450;13.326;2023-02-24T21:41:23;4.90;99.90
3268;DHT22;1646;52.450;13.326;2023-02-24T21:46:21;4.90;99.90
3268;DHT22;1646;52.450;13.326;2023-02-24T21:51:25;4.80;99.90
3268;DHT22;1646;52.450;13.326;2023-02-24T21:56:27;4.80;99.90
3268;DHT22;1646;52.450;13.326;2023-02-24T22:01:28;4.90;99.90
3268;DHT22;1646;52.450;13.326;2023-02-24T22:06:27;5.00;99.90
3268;DHT22;1646;52.450;13.326;2023-02-24T22:11:31;4.90;99.90
3268;DHT22;1646;52.450;13.326;2023-02-24T22:16:31;4.90;99.90
3268;DHT22;1646;52.450;13.326;2023-02-24T22:21:29;4.90;99.90
3268;DHT22;1646;52.450;13.326;2023-02-24T22:26:30;4.90;99.90
3268;DHT22;1646;52.450;13.326;2023-02-24T22:31:30;5.00;99.90
3268;DHT22;1646;52.450;13.326;2023-02-24T22:36:30;5.10;99.90
3268;DHT22;1646;52.450;13.326;2023-02-24T22:41:33;5.00;99.90
3268;DHT22;1646;52.450;13.326;2023-02-24T22:46:32;4.90;99.90
3268;DHT22;1646;52.450;13.326;2023-02-24T22:51:31;5.00;99.90
3268;DHT22;1646;52.450;13.326;2023-02-24T22:56:31;5.00;99.90
3268;DHT22;1646;52.450;13.326;2023-02-24T23:01:32;5.00;99.90
3268;DHT22;1646;52.450;13.326;2023-02-24T23:06:31;5.10;99.90
3268;DHT22;1646;52.450;13.326;2023-02-24T23:11:34;5.10;99.90
3268;DHT22;1646;52.450;13.326;2023-02-24T23:16:35;5.10;99.90
3268;DHT22;1646;52.450;13.326;2023-02-24T23:21:35;5.00;99.90
3268;DHT22;1646;52.450;13.326;2023-02-24T23:26:38;5.00;99.90
3268;DHT22;1646;52.450;13.326;2023-02-24T23:31:36;5.10;99.90
3268;DHT22;1646;52.450;13.326;2023-02-24T23:36:37;5.10;99.90
3268;DHT22;1646;52.450;13.326;2023-02-24T23:41:37;5.30;99.90
3268;DHT22;1646;52.450;13.326;2023-02-24T23:46:37;5.20;99.90
3268;DHT22;1646;52.450;13.326;2023-02-24T23:51:35;5.10;99.90
3268;DHT22;1646;52.450;13.326;2023-02-24T23:56:46;5.00;99.90
